Time;durP1;ratioP1;P1;durP2;ratioP2;P2;SDS_P1;SDS_P2;PMS_P1;PMS_P2;Temp;Humidity;BMP_temperature;BMP_pressure;BME280_temperature;BME280_humidity;BME280_pressure;Samples;Min_cycle;Max_cycle;Signal;HPM_P1;HPM_P2
2021/10/26 00:00:08;;;;;;;9.15;3.30;;;;;;;;;;21004277;28;20124;-66
2021/10/26 00:10:13;;;;;;;6.38;3.38;;;;;;;;;;21002970;28;20044;-62
2021/10/26 00:20:15;;;;;;;6.20;3.15;;;;;;;;;;21002033;28;20048;-65
2021/10/26 00:30:17;;;;;;;7.38;2.90;;;;;;;;;;21002457;28;20048;-66
2021/10/26 00:40:18;;;;;;;7.63;2.90;;;;;;;;;;21000591;28;20170;-64
2021/10/26 00:50:20;;;;;;;9.07;4.75;;;;;;;;;;20999337;28;20052;-63
2021/10/26 01:00:22;;;;;;;5.38;2.88;;;;;;;;;;20998038;28;20063;-67
2021/10/26 01:10:24;;;;;;;9.75;2.40;;;;;;;;;;20999135;28;20102;-66
2021/10/26 01:20:28;;;;;;;5.15;2.20;;;;;;;;;;20981200;28;20111;-69
2021/10/26 01:30:36;;;;;;;3.65;1.95;;;;;;;;;;20998859;28;20052;-66
2021/10/26 01:40:38;;;;;;;6.25;2.17;;;;;;;;;;20999136;28;20550;-65
2021/10/26 01:50:43;;;;;;;4.03;1.70;;;;;;;;;;20989990;28;20477;-66
2021/10/26 02:00:46;;;;;;;9.20;1.55;;;;;;;;;;20996997;28;20048;-67
2021/10/26 02:10:52;;;;;;;3.72;2.08;;;;;;;;;;21009949;28;20052;-66
2021/10/26 02:20:57;;;;;;;6.63;2.37;;;;;;;;;;21022776;28;20052;-68
2021/10/26 02:31:00;;;;;;;6.07;1.60;;;;;;;;;;21021742;28;20137;-67
2021/10/26 02:41:04;;;;;;;6.15;1.83;;;;;;;;;;21022230;28;20045;-65
2021/10/26 02:51:09;;;;;;;3.20;1.63;;;;;;;;;;21023756;28;20052;-68
2021/10/26 03:01:12;;;;;;;4.33;2.00;;;;;;;;;;21023278;28;20052;-57
2021/10/26 03:11:15;;;;;;;8.10;1.90;;;;;;;;;;21020622;28;20057;-65
2021/10/26 03:21:18;;;;;;;4.57;1.85;;;;;;;;;;21015024;28;20052;-65
2021/10/26 03:31:21;;;;;;;8.68;2.15;;;;;;;;;;21007036;28;20131;-56
2021/10/26 03:41:24;;;;;;;5.38;1.50;;;;;;;;;;21005619;28;20071;-56
2021/10/26 03:51:27;;;;;;;3.28;1.42;;;;;;;;;;21005340;28;20045;-68
2021/10/26 04:01:30;;;;;;;7.70;1.98;;;;;;;;;;21004820;28;20044;-66
2021/10/26 04:11:39;;;;;;;4.90;1.73;;;;;;;;;;20985097;28;20135;-56
2021/10/26 04:21:41;;;;;;;4.47;1.90;;;;;;;;;;21002271;28;20049;-67
2021/10/26 04:31:44;;;;;;;5.80;2.17;;;;;;;;;;21001515;28;20053;-55
2021/10/26 04:41:47;;;;;;;2.58;1.50;;;;;;;;;;21001019;28;20424;-56
2021/10/26 04:51:50;;;;;;;4.75;1.40;;;;;;;;;;20999175;28;20049;-57
2021/10/26 05:01:52;;;;;;;2.88;1.63;;;;;;;;;;20999174;28;20059;-57
2021/10/26 05:11:54;;;;;;;4.55;2.15;;;;;;;;;;20999822;28;20056;-55
2021/10/26 05:21:57;;;;;;;3.88;1.83;;;;;;;;;;21009661;28;20056;-58
2021/10/26 05:32:00;;;;;;;4.72;2.45;;;;;;;;;;21002302;28;20075;-65
2021/10/26 05:42:02;;;;;;;4.78;2.58;;;;;;;;;;20997291;28;20094;-57
2021/10/26 05:52:04;;;;;;;4.90;1.83;;;;;;;;;;20996682;28;20481;-57
2021/10/26 06:02:06;;;;;;;5.07;2.00;;;;;;;;;;20996069;28;20071;-68
2021/10/26 06:12:16;;;;;;;8.07;2.10;;;;;;;;;;20995641;28;20401;-56
2021/10/26 06:22:18;;;;;;;5.00;2.05;;;;;;;;;;20994952;28;20118;-67
2021/10/26 06:32:20;;;;;;;7.05;2.30;;;;;;;;;;20993932;28;20443;-64
2021/10/26 06:42:24;;;;;;;5.70;2.00;;;;;;;;;;20975953;28;20055;-64
2021/10/26 06:52:26;;;;;;;6.30;2.35;;;;;;;;;;20993407;28;20052;-68
2021/10/26 07:02:28;;;;;;;4.93;2.08;;;;;;;;;;20991281;28;20102;-60
2021/10/26 07:12:31;;;;;;;6.68;2.38;;;;;;;;;;21007437;28;20133;-56
2021/10/26 07:22:34;;;;;;;6.30;2.17;;;;;;;;;;21007133;28;20080;-56
2021/10/26 07:32:39;;;;;;;6.97;2.33;;;;;;;;;;21007521;28;20105;-55
2021/10/26 07:42:42;;;;;;;9.57;3.27;;;;;;;;;;20997519;28;20126;-58
2021/10/26 07:52:45;;;;;;;9.57;4.43;;;;;;;;;;21005068;28;20051;-55
2021/10/26 08:02:49;;;;;;;4.03;2.50;;;;;;;;;;21003691;28;20052;-66
2021/10/26 08:12:53;;;;;;;5.93;2.53;;;;;;;;;;21002397;28;20100;-56
2021/10/26 08:22:56;;;;;;;5.50;2.45;;;;;;;;;;21005585;28;20134;-60
2021/10/26 08:43:07;;;;;;;10.68;2.65;;;;;;;;;;20999969;28;20053;-65
2021/10/26 08:53:09;;;;;;;7.40;3.33;;;;;;;;;;20999469;28;20057;-65
2021/10/26 09:03:26;;;;;;;13.85;3.70;;;;;;;;;;20998768;28;20055;-65
2021/10/26 09:23:55;;;;;;;4.30;2.00;;;;;;;;;;20996766;28;20048;-55
2021/10/26 09:34:02;;;;;;;9.02;3.42;;;;;;;;;;21053817;28;20052;-55
2021/10/26 09:44:10;;;;;;;6.95;2.75;;;;;;;;;;21079410;28;20051;-54
2021/10/26 09:54:18;;;;;;;8.40;2.85;;;;;;;;;;21059621;28;20527;-57
2021/10/26 10:04:26;;;;;;;14.95;3.60;;;;;;;;;;21075409;28;20056;-54
2021/10/26 10:14:28;;;;;;;7.95;3.33;;;;;;;;;;21063892;28;20051;-53
2021/10/26 10:24:32;;;;;;;10.10;4.13;;;;;;;;;;21045313;28;20055;-57
2021/10/26 10:34:36;;;;;;;9.55;3.50;;;;;;;;;;21074057;28;20179;-60
2021/10/26 10:44:41;;;;;;;8.63;3.55;;;;;;;;;;21092849;28;20090;-57
2021/10/26 10:54:53;;;;;;;8.13;3.90;;;;;;;;;;21079228;28;20049;-56
2021/10/26 11:04:55;;;;;;;7.63;3.60;;;;;;;;;;21008898;28;20501;-51
2021/10/26 11:14:59;;;;;;;11.27;4.00;;;;;;;;;;21007298;28;20045;-51
2021/10/26 11:25:20;;;;;;;7.40;3.23;;;;;;;;;;21005392;28;20071;-54
2021/10/26 11:35:22;;;;;;;5.78;3.42;;;;;;;;;;21004406;28;20457;-56
2021/10/26 11:45:25;;;;;;;5.40;3.57;;;;;;;;;;21004205;28;20084;-53
2021/10/26 11:55:28;;;;;;;10.85;3.38;;;;;;;;;;21002482;28;20136;-53
2021/10/26 12:05:32;;;;;;;7.13;3.78;;;;;;;;;;21002111;28;20083;-58
2021/10/26 12:15:34;;;;;;;;;;;;;;;;;;21001542;28;20095;-58
2021/10/26 12:25:45;;;;;;;8.60;3.10;;;;;;;;;;20983475;28;19928;-58
2021/10/26 12:35:49;;;;;;;6.78;2.40;;;;;;;;;;21000712;28;20404;-58
2021/10/26 12:45:57;;;;;;;5.13;3.75;;;;;;;;;;20999126;28;20052;-58
2021/10/26 12:56:00;;;;;;;10.43;3.15;;;;;;;;;;20998967;28;20455;-61
2021/10/26 13:06:05;;;;;;;8.40;3.60;;;;;;;;;;20997457;28;20128;-58
2021/10/26 13:16:27;;;;;;;6.65;3.47;;;;;;;;;;20997623;28;20048;-58
2021/10/26 13:26:30;;;;;;;9.10;3.63;;;;;;;;;;20996346;28;20052;-59
2021/10/26 13:36:35;;;;;;;7.90;2.92;;;;;;;;;;20995308;28;20051;-56
2021/10/26 13:46:38;;;;;;;6.10;2.70;;;;;;;;;;20995420;28;20390;-58
2021/10/26 13:56:40;;;;;;;6.97;2.47;;;;;;;;;;20994692;28;20079;-57
2021/10/26 14:06:44;;;;;;;7.78;2.65;;;;;;;;;;20993866;28;20105;-57
2021/10/26 14:16:46;;;;;;;4.55;2.58;;;;;;;;;;20993940;28;20063;-59
2021/10/26 14:26:48;;;;;;;10.23;3.40;;;;;;;;;;20994407;28;20131;-58
2021/10/26 14:57:24;;;;;;;5.75;2.60;;;;;;;;;;20655362;28;20058;-57
2021/10/26 15:07:26;;;;;;;8.57;2.92;;;;;;;;;;20638685;28;20134;-59
2021/10/26 15:17:28;;;;;;;19.27;5.18;;;;;;;;;;20660491;28;20137;-59
2021/10/26 15:37:51;;;;;;;6.50;2.75;;;;;;;;;;21005545;28;20060;-59
2021/10/26 15:47:53;;;;;;;6.53;3.03;;;;;;;;;;21003938;28;20481;-60
2021/10/26 15:57:55;;;;;;;6.10;2.55;;;;;;;;;;21004211;28;20131;-60
2021/10/26 16:08:02;;;;;;;9.05;3.55;;;;;;;;;;21003296;28;20113;-59
2021/10/26 16:18:06;;;;;;;7.32;3.58;;;;;;;;;;21002246;28;20045;-58
2021/10/26 16:28:08;;;;;;;12.97;9.47;;;;;;;;;;21001122;28;20481;-58
2021/10/26 16:38:11;;;;;;;6.85;3.17;;;;;;;;;;21000395;28;20328;-52
2021/10/26 16:48:13;;;;;;;8.20;3.70;;;;;;;;;;20998731;28;20131;-53
2021/10/26 16:58:15;;;;;;;6.35;2.97;;;;;;;;;;20998889;28;20540;-54
2021/10/26 17:08:17;;;;;;;9.93;3.50;;;;;;;;;;20997993;28;20048;-55
2021/10/26 17:18:21;;;;;;;15.93;6.95;;;;;;;;;;20996316;28;20056;-61
2021/10/26 17:28:26;;;;;;;18.50;8.30;;;;;;;;;;20995540;28;20053;-60
2021/10/26 17:38:28;;;;;;;13.50;5.97;;;;;;;;;;20994026;28;20052;-59
2021/10/26 17:48:31;;;;;;;17.30;7.95;;;;;;;;;;20994141;28;20052;-57
2021/10/26 17:58:33;;;;;;;20.10;10.17;;;;;;;;;;20994803;28;20083;-58
2021/10/26 18:08:37;;;;;;;17.42;8.18;;;;;;;;;;20993565;28;20052;-59
2021/10/26 18:18:39;;;;;;;14.93;7.47;;;;;;;;;;20993908;28;20044;-61
2021/10/26 18:28:44;;;;;;;12.60;7.32;;;;;;;;;;20992348;28;20052;-60
2021/10/26 18:38:45;;;;;;;17.73;8.13;;;;;;;;;;20992290;28;20052;-61
2021/10/26 18:48:48;;;;;;;16.60;6.65;;;;;;;;;;20976609;28;20083;-59
2021/10/26 18:58:50;;;;;;;15.02;6.32;;;;;;;;;;21006851;28;20048;-60
2021/10/26 19:08:52;;;;;;;16.05;6.38;;;;;;;;;;21006138;28;20058;-61
2021/10/26 19:18:54;;;;;;;10.77;5.43;;;;;;;;;;21005578;28;20059;-62
2021/10/26 19:28:57;;;;;;;11.75;5.35;;;;;;;;;;21005594;28;20048;-58
2021/10/26 19:39:00;;;;;;;12.25;4.70;;;;;;;;;;21004467;28;20432;-60
2021/10/26 19:49:02;;;;;;;8.40;4.40;;;;;;;;;;21004984;28;20053;-58
2021/10/26 19:59:04;;;;;;;10.98;5.00;;;;;;;;;;21014327;28;20048;-61
2021/10/26 20:09:07;;;;;;;10.93;4.20;;;;;;;;;;21003757;28;20105;-64
2021/10/26 20:19:24;;;;;;;13.45;4.88;;;;;;;;;;21003687;28;20057;-58
2021/10/26 20:29:26;;;;;;;12.75;3.75;;;;;;;;;;21001150;28;20125;-59
2021/10/26 20:39:28;;;;;;;5.53;3.53;;;;;;;;;;21000182;28;20052;-62
2021/10/26 20:49:30;;;;;;;10.50;4.60;;;;;;;;;;20999819;28;20052;-60
2021/10/26 20:59:32;;;;;;;7.68;3.88;;;;;;;;;;20999384;28;20060;-61
2021/10/26 21:09:34;;;;;;;7.80;4.43;;;;;;;;;;20999156;28;20056;-59
2021/10/26 21:19:36;;;;;;;12.18;5.20;;;;;;;;;;20996401;28;20102;-60
2021/10/26 21:29:40;;;;;;;12.73;6.57;;;;;;;;;;20997875;28;20080;-61
2021/10/26 21:39:42;;;;;;;9.45;5.07;;;;;;;;;;20997291;28;20056;-61
2021/10/26 21:49:44;;;;;;;8.45;4.90;;;;;;;;;;20996462;28;20051;-61
2021/10/26 21:59:47;;;;;;;9.02;4.80;;;;;;;;;;20995860;28;20515;-61
2021/10/26 22:09:50;;;;;;;13.80;4.65;;;;;;;;;;20994811;28;20079;-62
2021/10/26 22:19:53;;;;;;;10.00;5.05;;;;;;;;;;20994534;28;20055;-58
2021/10/26 22:29:55;;;;;;;10.15;5.15;;;;;;;;;;21006534;28;20077;-62
2021/10/26 22:39:57;;;;;;;10.45;5.80;;;;;;;;;;21010581;28;20049;-58
2021/10/26 22:50:01;;;;;;;17.77;13.10;;;;;;;;;;21009509;28;20389;-61
2021/10/26 23:00:05;;;;;;;11.67;5.13;;;;;;;;;;21008880;28;20048;-59
2021/10/26 23:10:08;;;;;;;11.30;4.63;;;;;;;;;;21009262;28;20477;-58
2021/10/26 23:20:11;;;;;;;11.30;5.78;;;;;;;;;;21007991;28;20067;-60
2021/10/26 23:30:13;;;;;;;14.45;5.50;;;;;;;;;;21007455;28;20389;-60
2021/10/26 23:40:15;;;;;;;12.52;4.78;;;;;;;;;;21005090;28;20049;-61
2021/10/26 23:50:17;;;;;;;11.75;5.05;;;;;;;;;;21005014;28;20048;-58
